Sale City, Georgia
Current Conditions -  °F | °C
As of 6:35 PM on Wednesday 22 Oct 2014 (Local Time) from KMGR Reporting Station
Clear Clear  
Wind Chill: 70°   Ceiling: Unl
Heat Index: 70°   Visibility: 10mi
Dew Point: 46°   Wind: 5mph
Humidity: 43%   Direction: 360°N
Pressure: 30.03"   Gusts: NA
Location:  31.26°N, 84.02°W
Report Text: KMGR 222235Z AUTO 36004KT 10SM CLR 21/08 A3003 RMK AO2
Loading
Personal Weather Stations






























Interactive Weather Map
Tropical Storm Tracking
New forecast layout! Learn more

10-Day Weather Forecast

Advertisements
Track Severe Weather on mobile